• Join FlightAware (Why Join?)
  • Login
  • US Flag 
Gobble Gobble! 
06:03AM EST


 

Airport Tracker/Info


-or-


 

Live Flight TrackerFlight Track Log ✈ N724AE ✈ 12-May-2013 ✈ KAEX - KDFW

Flight Track Log - Related Links

Times and Time Zones

All times are in EDT time to prevent confusion due to time zone crossing. See the N724AE flight status page for this flight to view local times or setup timezone preferences in your user account.

Time Position Orientation Groundspeed Altitude Reporting Facility
EDT Latitude Longitude Course Direction KTS MPH feet Rate Location/Type
12:25PM 31.3431 -92.5694 293° West 162 186 1,400  Level Houston Center
12:25PM 31.3503 -92.5858 297° West 167 192 2,100 1,920 Climbing Houston Center
12:26PM 31.3564 -92.6022 294° West 181 208 2,700 2,460 Climbing Houston Center
12:27PM 31.3197 -92.6909 295° West  Level FlightAware Approximate
12:27PM 31.3775 -92.6692 290° West 214 246 5,500  Level Houston Center
12:28PM 31.3554 -92.7802 295° West  Level FlightAware Approximate
12:28PM 31.4033 -92.7469 291° West 246 283 8,500  Level Houston Center
12:29PM 31.3906 -92.8699 293° West  Level FlightAware Approximate
12:29PM 31.4303 -92.8286 291° West 268 308 10,700  Level Houston Center
12:30PM 31.4236 -92.9606 293° West  Level FlightAware Approximate
12:30PM 31.4617 -92.9239 291° West 310 357 12,700  Level Houston Center
12:31PM 31.5006 -93.0411 291° West 322 371 15,400 2,220 Climbing Houston Center
12:32PM 31.5325 -93.1406 291° West 326 375 17,300 1,740 Climbing Houston Center
12:33PM 31.5650 -93.2417 291° West 331 381 19,000 1,740 Climbing Houston Center
12:34PM 31.5992 -93.3467 291° West 343 395 21,000 1,860 Climbing Houston Center
12:35PM 31.6331 -93.4522 291° West 346 398 22,900 1,080 Climbing Houston Center
12:36PM 31.6753 -93.5933 289° West 356 410 23,500 540 Climbing Fort Worth Center
12:37PM 31.7122 -93.7114 290° West 373 429 24,200 720 Climbing Fort Worth Center
12:38PM 31.7511 -93.8294 291° West 385 443 25,000 720 Climbing Fort Worth Center
12:39PM 31.7756 -93.9531 283° West 385 443 25,700 480 Climbing Fort Worth Center
12:40PM 31.8017 -94.0744 284° West 390 449 26,000 120 Climbing Fort Worth Center
12:41PM 31.8258 -94.1983 283° West 390 449 26,000  Level Fort Worth Center
12:42PM 31.8478 -94.3247 282° West 390 449 26,000  Level Fort Worth Center
12:43PM 31.8783 -94.4678 284° West 400 460 26,000  Level Fort Worth Center
12:44PM 31.9000 -94.5944 281° West 405 466 26,000 -180 Level Fort Worth Center
12:45PM 31.9258 -94.7208 284° West 410 472 25,700 -840 Descending Fort Worth Center
12:46PM 31.9514 -94.8450 284° West 410 472 24,400 -900 Descending Fort Worth Center
12:47PM 31.9747 -94.9742 282° West 410 472 24,000 -240 Descending Fort Worth Center
12:48PM 31.9958 -95.0986 281° West 400 460 24,000  Level Fort Worth Center
12:49PM 32.0189 -95.2228 282° West 400 460 24,000  Level Fort Worth Center
12:50PM 32.0442 -95.3547 283° West 400 460 24,000  Level Fort Worth Center
12:51PM 32.0692 -95.4864 283° West 411 473 24,000  Level Fort Worth Center
12:52PM 32.0942 -95.6158 283° West 411 473 24,000  Level Fort Worth Center
12:53PM 32.1397 -95.7450 293° West 411 473 24,000  Level Fort Worth Center
12:54PM 32.1831 -95.8669 293° West 416 479 24,000 -240 Level Fort Worth Center
12:55PM 32.2242 -95.9867 292° West 410 472 23,600 -1,140 Descending Fort Worth Center
12:56PM 32.2628 -96.0989 292° West 399 459 21,800 -2,040 Descending Fort Worth Center
12:57PM 32.3058 -96.2286 291° West 399 459 19,600 -2,040 Descending Fort Worth Center
12:58PM 32.3422 -96.3289 293° West 390 449 17,800 -1,860 Descending Fort Worth Center
12:59PM 32.3850 -96.4514 292° West 372 428 15,900 -1,980 Descending Fort Worth Center
01:00PM 32.4483 -96.5297 314° West 365 420 13,900 -2,220 Descending Fort Worth Center
01:01PM 32.5197 -96.6150 315° West 347 399 11,500 -1,500 Descending Fort Worth Center
01:02PM 32.5828 -96.6886 315° West 342 394 11,000 -300 Descending Fort Worth Center
01:03PM 32.6544 -96.7744 315° West 336 387 11,000  Level Fort Worth Center
01:04PM 32.7025 -96.8333 314° West 299 344 11,000  Level Fort Worth Center
01:05PM 32.7500 -96.8833 318° Northwest 226 260 11,000 -180 Level Dallas / Fort Worth TRACON
01:06PM 32.8167 -96.9000 348° North 214 246 10,700 -780 Descending Dallas / Fort Worth TRACON
01:07PM 32.8667 -96.9000 360° North 215 247 9,500 -1,320 Descending Dallas / Fort Worth TRACON
01:08PM 32.9333 -96.9000 360° North 215 247 8,100 -1,500 Descending Dallas / Fort Worth TRACON
01:09PM 32.9833 -96.9000 360° North 215 247 6,700 -1,500 Descending Dallas / Fort Worth TRACON
01:10PM 33.0500 -96.9167 348° North 216 249 5,200 -1,440 Descending Dallas / Fort Worth TRACON
01:11PM 33.0667 -96.9833 287° West 232 267 3,700 -1,500 Descending Dallas / Fort Worth TRACON